Time;durP1;ratioP1;P1;durP2;ratioP2;P2;SDS_P1;SDS_P2;PMS_P1;PMS_P2;Temp;Humidity;BMP_temperature;BMP_pressure;BME280_temperature;BME280_humidity;BME280_pressure;Samples;Min_cycle;Max_cycle;Signal;HPM_P1;HPM_P2
2021/04/19 00:00:26;;;;;;;23.00;13.47;;;;;;;7.44;82.93;96413.81;5015962;28;20535;-83
2021/04/19 00:02:52;;;;;;;22.47;14.50;;;;;;;7.38;83.16;96415.16;5024751;28;20461;-84
2021/04/19 00:05:20;;;;;;;20.97;13.93;;;;;;;7.34;83.27;96409.38;5028901;27;20442;-83
2021/04/19 00:08:13;;;;;;;20.40;14.03;;;;;;;7.34;83.40;96415.47;5037567;27;20484;-83
2021/04/19 00:10:39;;;;;;;27.10;15.17;;;;;;;7.35;83.00;96405.47;5037506;27;20563;-82
2021/04/19 00:13:06;;;;;;;24.47;15.47;;;;;;;7.30;83.53;96407.00;5037021;27;20532;-83
2021/04/19 00:15:33;;;;;;;22.20;13.40;;;;;;;7.29;83.13;96402.88;5034224;27;20388;-83
2021/04/19 00:18:00;;;;;;;18.53;13.23;;;;;;;7.29;83.28;96402.88;5017294;28;20423;-82
2021/04/19 00:20:26;;;;;;;18.97;13.50;;;;;;;7.19;83.73;96399.16;5018478;28;20444;-82
2021/04/19 00:22:52;;;;;;;22.80;15.20;;;;;;;7.11;84.66;96403.69;5018959;28;20430;-83
2021/04/19 00:25:19;;;;;;;20.53;14.80;;;;;;;7.06;84.37;96399.16;5015069;28;20531;-83
2021/04/19 00:27:45;;;;;;;30.70;16.17;;;;;;;7.07;84.31;96395.25;5015550;28;20433;-83
2021/04/19 00:30:12;;;;;;;19.27;13.97;;;;;;;7.09;84.69;96392.03;5015951;28;20885;-83
2021/04/19 00:32:39;;;;;;;22.00;14.27;;;;;;;7.07;84.54;96397.94;5015720;28;20523;-85
2021/04/19 00:35:07;;;;;;;22.53;14.97;;;;;;;7.05;84.88;96386.28;5015131;28;20483;-83
2021/04/19 00:37:33;;;;;;;21.37;14.00;;;;;;;7.03;85.06;96394.81;5019666;28;20415;-81
2021/04/19 00:39:59;;;;;;;22.53;15.43;;;;;;;7.03;85.23;96386.03;5021103;28;20514;-81
2021/04/19 00:42:27;;;;;;;22.33;15.77;;;;;;;7.03;84.87;96384.09;5021936;28;20445;-81
2021/04/19 00:44:53;;;;;;;21.37;14.67;;;;;;;7.02;85.52;96387.31;5021070;28;20886;-82
2021/04/19 00:47:19;;;;;;;23.87;14.60;;;;;;;6.96;85.44;96379.34;5021317;28;20483;-82
2021/04/19 00:49:45;;;;;;;18.83;13.10;;;;;;;6.90;85.55;96382.13;5021562;28;20466;-81
2021/04/19 00:52:12;;;;;;;18.53;13.53;;;;;;;6.93;85.33;96385.72;5021909;28;20418;-81
2021/04/19 00:54:38;;;;;;;21.33;15.00;;;;;;;6.85;85.77;96382.94;5022054;28;20491;-81
2021/04/19 00:57:05;;;;;;;21.17;13.37;;;;;;;6.81;86.17;96376.44;5021719;28;20525;-82
2021/04/19 00:59:32;;;;;;;23.57;14.87;;;;;;;6.80;85.65;96377.66;5022374;28;20978;-82
2021/04/19 01:01:59;;;;;;;20.90;14.90;;;;;;;6.74;85.86;96377.75;5021641;28;20448;-81
2021/04/19 01:04:25;;;;;;;22.53;14.23;;;;;;;6.78;86.26;96375.50;5021233;28;20906;-81
2021/04/19 01:06:52;;;;;;;21.67;14.47;;;;;;;6.72;86.15;96374.16;5020177;28;20554;-82
2021/04/19 01:09:18;;;;;;;21.37;14.33;;;;;;;6.74;86.66;96374.34;5019773;28;20592;-84
2021/04/19 01:11:44;;;;;;;23.70;15.13;;;;;;;6.73;86.50;96378.28;5018662;28;20539;-83
2021/04/19 01:14:11;;;;;;;22.30;14.27;;;;;;;6.79;86.25;96381.59;5017828;28;20470;-83
2021/04/19 01:16:38;;;;;;;22.57;16.00;;;;;;;6.74;86.65;96374.34;5018300;28;20471;-83
2021/04/19 01:19:04;;;;;;;21.33;14.20;;;;;;;6.76;86.57;96371.91;5015462;28;20425;-83
2021/04/19 01:21:31;;;;;;;25.63;16.80;;;;;;;6.80;86.35;96370.34;5014903;28;20588;-83
2021/04/19 01:23:57;;;;;;;21.33;15.13;;;;;;;6.84;85.95;96375.41;5014408;28;20576;-83
2021/04/19 01:26:24;;;;;;;21.17;14.07;;;;;;;6.88;86.33;96373.88;5015289;28;20466;-83
2021/04/19 01:28:50;;;;;;;21.20;14.20;;;;;;;6.87;86.17;96374.38;5018174;28;20907;-83
2021/04/19 01:31:17;;;;;;;24.17;16.20;;;;;;;6.90;86.29;96370.66;5018050;28;20426;-82
2021/04/19 01:33:43;;;;;;;22.50;14.53;;;;;;;6.90;86.30;96367.97;5018176;28;20551;-83
2021/04/19 01:36:09;;;;;;;21.77;14.83;;;;;;;6.91;86.38;96366.75;5017707;28;20482;-83
2021/04/19 01:38:37;;;;;;;20.93;14.97;;;;;;;6.91;86.08;96375.53;5017639;28;20422;-83
2021/04/19 01:41:03;;;;;;;23.90;15.40;;;;;;;6.88;86.69;96371.19;5015890;28;20433;-83
2021/04/19 01:43:29;;;;;;;25.90;15.60;;;;;;;6.85;86.78;96369.53;5014269;28;20430;-83
2021/04/19 01:49:18;;;;;;;25.53;14.10;;;;;;;6.85;86.28;96364.19;5013990;28;20568;-83
2021/04/19 01:51:45;;;;;;;25.60;15.43;;;;;;;6.87;86.75;96363.66;5014243;28;20512;-83
2021/04/19 01:54:12;;;;;;;22.67;14.10;;;;;;;6.88;86.57;96365.81;5013890;28;20489;-84
2021/04/19 01:56:39;;;;;;;24.90;14.90;;;;;;;6.93;86.31;96367.69;5016162;28;20893;-83
2021/04/19 01:59:07;;;;;;;26.00;14.57;;;;;;;6.95;86.33;96359.13;5017282;28;20411;-83
2021/04/19 02:01:35;;;;;;;23.23;14.17;;;;;;;6.91;86.62;96356.75;5020171;28;20442;-83
2021/04/19 02:04:09;;;;;;;24.13;15.30;;;;;;;6.93;86.40;96358.91;5015464;28;20450;-83
2021/04/19 02:06:38;;;;;;;25.33;14.57;;;;;;;6.95;86.47;96361.81;5013956;28;20424;-83
2021/04/19 02:09:14;;;;;;;22.17;15.57;;;;;;;6.96;86.44;96358.59;5014462;28;20905;-83
2021/04/19 02:11:57;;;;;;;26.70;14.90;;;;;;;6.97;86.24;96364.69;5014161;28;20474;-83
2021/04/19 02:14:35;;;;;;;21.63;14.13;;;;;;;6.99;85.95;96351.47;5014739;28;20499;-83
2021/04/19 02:17:09;;;;;;;19.53;14.90;;;;;;;7.04;86.03;96358.00;5020323;28;20427;-83
2021/04/19 02:19:41;;;;;;;21.90;14.73;;;;;;;7.12;85.56;96354.16;5014419;28;20773;-84
2021/04/19 02:22:11;;;;;;;23.83;15.60;;;;;;;7.14;85.85;96357.03;5014115;28;20816;-83
2021/04/19 02:24:42;;;;;;;21.27;16.60;;;;;;;7.12;85.72;96361.50;5013811;28;20929;-83
2021/04/19 02:27:17;;;;;;;24.50;15.47;;;;;;;7.09;85.73;96347.16;5014004;28;20403;-83
2021/04/19 02:29:46;;;;;;;23.00;15.10;;;;;;;7.16;85.79;96353.84;5013411;28;20450;-83
2021/04/19 02:32:15;;;;;;;20.80;13.40;;;;;;;7.16;85.58;96343.13;5013940;28;20933;-83
2021/04/19 02:34:44;;;;;;;23.27;15.20;;;;;;;7.21;85.33;96351.06;5015510;28;20540;-84
2021/04/19 02:37:11;;;;;;;22.60;14.33;;;;;;;7.32;85.05;96345.50;5015373;28;20482;-83
2021/04/19 02:39:42;;;;;;;25.30;16.47;;;;;;;7.24;85.14;96349.31;5014425;28;20423;-84
2021/04/19 02:42:11;;;;;;;20.73;15.10;;;;;;;7.25;85.03;96356.84;5015383;28;20405;-83
2021/04/19 02:44:38;;;;;;;18.97;13.90;;;;;;;7.22;85.28;96351.78;5014771;28;20427;-83
2021/04/19 02:47:05;;;;;;;21.27;15.10;;;;;;;7.20;85.22;96344.28;5015660;28;20411;-83
2021/04/19 02:49:35;;;;;;;23.20;15.40;;;;;;;7.24;85.19;96343.94;5013951;28;20459;-83
2021/04/19 02:52:03;;;;;;;19.97;15.37;;;;;;;7.33;84.94;96338.16;5021313;28;20461;-81
2021/04/19 02:54:32;;;;;;;29.80;16.73;;;;;;;7.28;85.06;96342.41;5020387;28;20476;-81
2021/04/19 02:56:58;;;;;;;21.03;15.13;;;;;;;7.30;84.94;96350.63;5015636;28;20423;-83
2021/04/19 02:59:29;;;;;;;22.60;14.30;;;;;;;7.24;84.85;96347.34;5016370;28;20786;-83
2021/04/19 03:02:00;;;;;;;25.90;16.20;;;;;;;7.14;85.10;96348.28;5033629;27;20433;-83
2021/04/19 03:04:31;;;;;;;24.63;15.00;;;;;;;7.06;85.80;96348.19;5034726;27;20435;-82
2021/04/19 03:07:00;;;;;;;30.53;17.90;;;;;;;7.07;86.02;96341.59;5034859;27;20435;-82
2021/04/19 03:09:27;;;;;;;21.57;14.63;;;;;;;7.08;85.61;96340.34;5028423;27;20499;-83
2021/04/19 03:11:58;;;;;;;27.53;14.97;;;;;;;7.13;85.54;96346.84;5014806;28;20441;-83
2021/04/19 03:14:31;;;;;;;19.63;14.90;;;;;;;7.17;85.84;96341.91;5016266;28;20463;-82
2021/04/19 03:17:03;;;;;;;23.57;15.73;;;;;;;7.14;86.04;96342.94;5017183;28;20482;-82
2021/04/19 03:19:31;;;;;;;23.43;15.17;;;;;;;7.17;86.02;96339.94;5018974;28;20453;-82
2021/04/19 03:21:58;;;;;;;28.67;18.00;;;;;;;7.20;85.89;96338.19;5018420;28;20503;-82
2021/04/19 03:24:26;;;;;;;25.00;17.50;;;;;;;7.20;85.60;96338.19;5018714;28;20450;-82
2021/04/19 03:26:53;;;;;;;27.43;16.37;;;;;;;7.17;85.88;96339.22;5018449;28;20419;-83
2021/04/19 03:29:21;;;;;;;27.43;16.87;;;;;;;7.14;86.62;96334.88;5015245;28;20576;-84
2021/04/19 03:31:51;;;;;;;24.57;17.60;;;;;;;7.14;86.39;96340.94;5012313;28;20513;-83
2021/04/19 03:34:21;;;;;;;28.13;17.50;;;;;;;7.16;86.60;96335.81;5016137;28;20481;-82
2021/04/19 03:36:53;;;;;;;27.57;17.63;;;;;;;7.21;86.11;96340.31;5018224;28;20489;-82
2021/04/19 03:39:22;;;;;;;28.27;18.93;;;;;;;7.25;85.99;96330.00;5018846;28;20484;-82
2021/04/19 03:41:51;;;;;;;26.30;16.73;;;;;;;7.22;86.56;96330.31;5018392;28;20571;-82
2021/04/19 03:44:21;;;;;;;28.53;18.67;;;;;;;7.26;85.83;96328.06;5017560;28;20451;-83
2021/04/19 03:46:51;;;;;;;28.60;17.73;;;;;;;7.35;85.75;96333.72;5016930;28;20436;-82
2021/04/19 03:49:21;;;;;;;28.30;16.07;;;;;;;7.32;85.94;96324.03;5025786;28;20521;-83
2021/04/19 03:51:48;;;;;;;32.70;19.80;;;;;;;7.32;85.88;96324.03;5026392;28;20416;-83
2021/04/19 03:54:15;;;;;;;29.57;18.83;;;;;;;7.27;86.55;96324.84;5026959;28;20532;-82
2021/04/19 03:56:43;;;;;;;33.27;19.97;;;;;;;7.26;87.08;96325.38;5028560;28;20459;-82
2021/04/19 03:59:14;;;;;;;33.70;21.70;;;;;;;7.26;87.02;96333.41;5024942;28;20411;-81
2021/04/19 04:01:42;;;;;;;35.63;21.13;;;;;;;7.41;85.97;96328.97;5019420;28;20459;-84
2021/04/19 04:04:11;;;;;;;31.73;21.17;;;;;;;7.43;86.23;96331.84;5015698;28;20443;-83
2021/04/19 04:06:39;;;;;;;32.90;22.50;;;;;;;7.38;86.76;96330.00;5015568;28;20423;-83
2021/04/19 04:09:06;;;;;;;35.03;22.90;;;;;;;7.36;86.99;96324.41;5017515;28;20466;-83
2021/04/19 04:11:32;;;;;;;34.30;21.50;;;;;;;7.47;86.68;96326.16;5011193;28;20465;-81
2021/04/19 04:13:58;;;;;;;37.80;23.97;;;;;;;7.47;86.86;96324.19;5004994;28;20481;-82
2021/04/19 04:16:24;;;;;;;35.07;24.20;;;;;;;7.48;86.66;96327.59;5005866;28;20881;-81
2021/04/19 04:18:50;;;;;;;37.67;23.30;;;;;;;7.47;86.82;96329.56;5005706;28;20534;-82
2021/04/19 04:21:18;;;;;;;34.10;21.60;;;;;;;7.56;86.48;96325.72;5005842;28;20441;-82
2021/04/19 04:23:44;;;;;;;35.60;23.20;;;;;;;7.63;86.37;96322.41;5005097;28;20485;-82
2021/04/19 04:26:11;;;;;;;31.20;21.23;;;;;;;7.63;86.29;96327.03;5004299;28;20594;-82
2021/04/19 04:28:38;;;;;;;32.73;20.90;;;;;;;7.60;86.53;96325.41;5004756;28;20546;-82
2021/04/19 04:31:04;;;;;;;35.90;21.10;;;;;;;7.63;86.45;96327.78;5003862;28;20532;-82
2021/04/19 04:33:30;;;;;;;33.40;21.87;;;;;;;7.54;86.85;96328.22;5001757;28;20469;-83
2021/04/19 04:35:56;;;;;;;31.60;20.80;;;;;;;7.59;86.92;96332.00;5002772;28;20481;-83
2021/04/19 04:38:23;;;;;;;28.83;19.67;;;;;;;7.55;86.99;96332.31;5002575;28;20443;-83
2021/04/19 04:40:49;;;;;;;29.63;18.20;;;;;;;7.65;86.29;96330.66;5004263;28;20445;-82
2021/04/19 04:43:20;;;;;;;26.77;18.00;;;;;;;7.66;86.42;96337.47;5004606;28;20524;-81
2021/04/19 04:45:47;;;;;;;25.57;16.60;;;;;;;7.70;86.16;96329.81;5004200;28;20475;-82
2021/04/19 04:48:20;;;;;;;25.00;16.97;;;;;;;7.60;86.09;96333.47;5003473;28;20885;-82
2021/04/19 04:50:49;;;;;;;29.57;18.40;;;;;;;7.56;86.10;96333.78;5005125;28;20854;-82
2021/04/19 04:53:18;;;;;;;26.27;17.13;;;;;;;7.53;85.88;96335.53;5003732;28;20548;-82
2021/04/19 04:55:47;;;;;;;23.97;17.00;;;;;;;7.52;86.36;96336.03;5002778;28;20416;-82
2021/04/19 04:58:14;;;;;;;27.00;16.77;;;;;;;7.57;86.43;96340.59;5002153;28;20443;-81
2021/04/19 05:00:41;;;;;;;22.07;15.27;;;;;;;7.52;86.37;96336.03;5003324;28;20451;-81
2021/04/19 05:03:10;;;;;;;31.13;16.50;;;;;;;7.47;86.28;96334.22;5004245;28;20468;-81
2021/04/19 05:05:36;;;;;;;26.67;15.50;;;;;;;7.49;86.51;96345.13;5004288;28;20423;-81
2021/04/19 05:08:03;;;;;;;27.60;16.60;;;;;;;7.54;86.28;96338.94;5003431;28;20755;-81
2021/04/19 05:10:30;;;;;;;27.70;16.87;;;;;;;7.41;86.31;96341.66;5003808;28;20511;-81
2021/04/19 05:12:57;;;;;;;23.50;16.47;;;;;;;7.43;86.37;96341.84;5003757;28;20511;-83
2021/04/19 05:15:23;;;;;;;23.87;16.90;;;;;;;7.39;86.95;96341.47;4999020;28;20473;-84
2021/04/19 05:17:49;;;;;;;25.20;16.60;;;;;;;7.32;86.92;96339.41;4998786;28;20935;-83
2021/04/19 05:20:16;;;;;;;29.10;16.10;;;;;;;7.28;87.05;96338.97;4998556;28;21019;-83
2021/04/19 05:22:44;;;;;;;25.50;14.63;;;;;;;7.06;87.76;96340.13;4998979;28;20441;-84
2021/04/19 05:25:12;;;;;;;27.10;16.93;;;;;;;6.93;88.64;96343.53;4999508;28;20439;-83
2021/04/19 05:27:38;;;;;;;27.13;17.97;;;;;;;6.80;89.81;96340.13;5002722;28;20856;-83
2021/04/19 05:30:07;;;;;;;23.37;17.37;;;;;;;6.90;89.32;96341.88;4999124;28;20528;-83
2021/04/19 05:32:33;;;;;;;28.30;17.27;;;;;;;6.90;89.52;96341.16;4998064;28;20519;-84
2021/04/19 05:35:00;;;;;;;26.37;17.37;;;;;;;6.89;90.07;96347.78;4999291;28;20440;-85
2021/04/19 05:37:27;;;;;;;27.73;17.50;;;;;;;6.91;90.28;96347.97;4997844;28;20837;-85
2021/04/19 05:39:54;;;;;;;26.17;17.67;;;;;;;6.94;90.73;96338.91;4998493;28;20824;-84
2021/04/19 05:42:20;;;;;;;28.90;18.27;;;;;;;6.84;91.79;96343.94;4997981;28;20456;-84
2021/04/19 05:44:48;;;;;;;25.20;17.37;;;;;;;6.89;91.65;96342.41;5003180;28;20458;-82
2021/04/19 05:47:15;;;;;;;28.73;18.70;;;;;;;6.97;90.69;96345.91;5003435;28;20812;-82
2021/04/19 05:49:41;;;;;;;26.30;17.23;;;;;;;6.90;90.08;96347.25;5003450;28;20523;-82
2021/04/19 05:52:09;;;;;;;28.30;17.90;;;;;;;6.87;91.45;96347.56;5005057;28;20450;-82
2021/04/19 05:54:36;;;;;;;26.43;16.53;;;;;;;7.23;89.98;96355.94;5023615;27;20482;-85
2021/04/19 05:57:22;;;;;;;22.60;17.07;;;;;;;7.20;90.59;96357.69;5035583;27;20450;-94
2021/04/19 06:03:19;;;;;;;27.13;19.30;;;;;;;7.41;90.06;96363.13;5035263;27;20382;-90
2021/04/19 06:05:58;;;;;;;25.37;17.07;;;;;;;7.63;89.52;96367.31;5030186;27;20492;-90
2021/04/19 06:08:29;;;;;;;30.10;18.10;;;;;;;7.64;89.41;96360.72;5022446;28;20467;-89
2021/04/19 06:11:04;;;;;;;31.87;19.37;;;;;;;7.52;90.38;96366.31;5020742;28;20432;-89
2021/04/19 06:13:32;;;;;;;31.97;18.87;;;;;;;7.61;90.50;96367.13;5022844;28;20546;-90
2021/04/19 06:16:01;;;;;;;32.13;19.50;;;;;;;7.49;91.17;96367.34;5027950;28;20519;-88
2021/04/19 06:18:33;;;;;;;30.43;20.30;;;;;;;7.46;92.00;96367.66;5018798;28;20431;-87
2021/04/19 06:21:01;;;;;;;29.67;19.47;;;;;;;7.60;92.07;96369.09;5017651;28;20525;-88
2021/04/19 06:23:27;;;;;;;33.17;21.37;;;;;;;7.51;92.10;96359.50;5016382;28;21097;-88
2021/04/19 06:25:54;;;;;;;28.30;19.37;;;;;;;7.60;91.65;96376.41;5019083;28;20410;-88
2021/04/19 06:28:24;;;;;;;30.20;17.73;;;;;;;7.50;91.99;96376.13;5039364;28;20461;-88
2021/04/19 06:30:51;;;;;;;30.30;20.33;;;;;;;7.34;92.55;96377.16;5038244;28;20440;-88
2021/04/19 06:33:19;;;;;;;25.03;18.50;;;;;;;7.33;92.40;96370.38;5037918;28;20419;-87
2021/04/19 06:35:47;;;;;;;34.60;19.60;;;;;;;7.43;92.11;96376.75;5038241;28;20458;-88
2021/04/19 06:38:14;;;;;;;28.47;17.70;;;;;;;7.45;92.15;96375.00;5038238;28;20952;-87
2021/04/19 06:40:42;;;;;;;29.97;18.30;;;;;;;7.36;93.17;96377.38;5037878;28;20513;-87
2021/04/19 06:43:09;;;;;;;28.87;18.83;;;;;;;7.45;92.95;96377.69;5037483;28;20453;-87
2021/04/19 06:45:38;;;;;;;25.70;18.33;;;;;;;7.57;91.97;96385.50;5039065;28;20459;-87
2021/04/19 06:48:07;;;;;;;29.13;17.53;;;;;;;7.56;92.41;96379.41;5038737;28;20440;-89
2021/04/19 06:50:33;;;;;;;31.67;19.97;;;;;;;7.43;92.79;96377.47;5040005;28;20470;-91
2021/04/19 06:53:01;;;;;;;29.83;17.70;;;;;;;7.63;92.84;96383.44;5038451;28;20410;-89
2021/04/19 06:55:27;;;;;;;30.10;19.33;;;;;;;7.45;93.24;96385.00;5037237;28;20974;-87
2021/04/19 06:57:55;;;;;;;37.33;19.23;;;;;;;7.63;92.99;96391.50;5038392;28;20502;-88
2021/04/19 07:00:23;;;;;;;29.87;18.40;;;;;;;7.50;93.51;96384.19;5037941;28;20446;-89
2021/04/19 07:02:52;;;;;;;29.30;17.80;;;;;;;7.62;93.29;96381.97;5039916;28;20502;-90
2021/04/19 07:05:24;;;;;;;24.77;17.70;;;;;;;7.52;92.85;96387.78;5049714;28;20453;-90
2021/04/19 07:07:58;;;;;;;30.57;19.93;;;;;;;7.47;93.89;96395.94;5043635;28;20547;-89
2021/04/19 07:10:25;;;;;;;29.40;19.70;;;;;;;7.38;94.25;96375.63;5045042;28;20525;-91
2021/04/19 07:12:53;;;;;;;29.17;19.83;;;;;;;7.25;94.63;96385.63;5047596;28;20436;-89
2021/04/19 07:15:20;;;;;;;30.77;21.50;;;;;;;7.18;94.84;96389.66;5044199;28;20438;-93
2021/04/19 07:17:49;;;;;;;33.50;20.87;;;;;;;7.24;95.24;96387.59;5049149;27;20447;-90
2021/04/19 07:20:18;;;;;;;25.87;20.60;;;;;;;7.14;96.13;96385.84;5019489;28;20476;-91
2021/04/19 07:22:45;;;;;;;30.60;18.63;;;;;;;7.17;96.02;96382.13;5000263;28;20455;-91
2021/04/19 07:25:12;;;;;;;28.80;20.37;;;;;;;7.18;96.04;96384.28;5001549;28;20465;-92
2021/04/19 07:27:40;;;;;;;33.17;19.60;;;;;;;7.17;95.89;96382.88;5004557;28;20451;-93
2021/04/19 07:30:09;;;;;;;27.97;19.70;;;;;;;7.22;95.67;96384.72;5002143;28;20505;-92
2021/04/19 07:32:37;;;;;;;30.80;19.83;;;;;;;7.27;96.23;96378.50;5003599;28;20512;-92
2021/04/19 07:35:05;;;;;;;31.10;19.67;;;;;;;7.22;95.57;96384.72;5006702;28;20476;-88
2021/04/19 07:37:32;;;;;;;25.90;18.30;;;;;;;7.22;95.87;96384.72;4998461;28;20490;-88
2021/04/19 07:40:03;;;;;;;30.00;19.40;;;;;;;7.28;95.84;96385.31;5000602;28;20886;-90
2021/04/19 07:42:30;;;;;;;28.20;20.17;;;;;;;7.21;96.44;96377.91;5000873;28;20445;-89
2021/04/19 07:45:12;;;;;;;35.80;19.33;;;;;;;7.22;96.29;96365.94;5003307;28;20445;-89
2021/04/19 07:47:41;;;;;;;27.73;19.30;;;;;;;7.22;96.33;96370.56;5005945;28;20449;-88
2021/04/19 07:50:17;;;;;;;28.40;18.40;;;;;;;7.32;96.28;96375.00;5006929;28;20481;-90
2021/04/19 07:52:56;;;;;;;38.50;20.40;;;;;;;7.36;96.04;96372.72;5011225;28;20428;-91
2021/04/19 07:55:25;;;;;;;28.07;17.90;;;;;;;7.73;96.75;96376.41;5009209;28;20946;-91
2021/04/19 07:57:51;;;;;;;31.10;21.63;;;;;;;7.84;95.55;96376.88;5010488;28;20498;-90
2021/04/19 08:00:30;;;;;;;27.90;18.70;;;;;;;7.89;93.88;96373.34;5012699;28;20412;-90
2021/04/19 08:03:01;;;;;;;32.77;18.40;;;;;;;8.14;93.23;96375.75;5014094;28;20413;-90
2021/04/19 08:05:31;;;;;;;30.90;18.37;;;;;;;8.20;93.34;96381.72;5014736;28;20481;-91
2021/04/19 08:07:58;;;;;;;33.57;20.90;;;;;;;8.09;92.52;96375.34;5014560;28;20427;-91
2021/04/19 08:10:24;;;;;;;26.17;19.13;;;;;;;8.21;91.72;96377.78;5014669;28;20494;-91
2021/04/19 08:13:00;;;;;;;28.80;18.00;;;;;;;8.27;91.91;96371.03;5015107;28;20444;-89
2021/04/19 08:15:27;;;;;;;29.53;17.83;;;;;;;8.22;91.88;96366.50;5016117;28;20439;-92
2021/04/19 08:17:59;;;;;;;26.90;17.87;;;;;;;8.29;92.10;96382.03;5013406;28;20426;-88
2021/04/19 08:20:26;;;;;;;33.63;19.63;;;;;;;8.33;92.41;96381.69;5013214;28;20489;-92
2021/04/19 08:22:52;;;;;;;27.80;18.20;;;;;;;8.53;90.78;96372.91;5012982;28;20420;-90
2021/04/19 08:25:21;;;;;;;23.67;17.60;;;;;;;8.66;90.57;96380.16;5010802;28;20424;-89
2021/04/19 08:28:00;;;;;;;31.43;17.97;;;;;;;8.73;90.99;96382.22;5011459;28;20442;-89
2021/04/19 08:30:30;;;;;;;28.47;18.40;;;;;;;8.90;89.79;96379.81;5017489;28;20471;-93
2021/04/19 08:33:00;;;;;;;25.80;17.60;;;;;;;9.12;89.05;96377.28;5015879;28;20408;-94
2021/04/19 08:35:31;;;;;;;30.27;19.10;;;;;;;8.91;89.19;96375.88;5013768;28;20445;-93
2021/04/19 08:37:59;;;;;;;32.80;20.20;;;;;;;8.67;90.44;96376.97;5012474;28;20415;-90
2021/04/19 08:40:27;;;;;;;32.27;19.17;;;;;;;8.63;91.29;96379.25;5004513;28;20416;-92
2021/04/19 08:42:55;;;;;;;28.23;19.10;;;;;;;8.54;91.76;96379.72;5003410;28;20437;-90
2021/04/19 08:45:22;;;;;;;30.40;20.20;;;;;;;8.55;91.76;96384.56;5002250;28;20507;-89
2021/04/19 08:47:52;;;;;;;31.43;19.97;;;;;;;8.41;92.56;96383.22;5003623;28;20441;-89
2021/04/19 08:50:22;;;;;;;28.30;19.63;;;;;;;8.45;93.14;96385.56;5003937;28;20509;-87
2021/04/19 08:52:51;;;;;;;32.23;21.20;;;;;;;8.43;93.07;96391.47;5016892;28;20495;-93
2021/04/19 08:55:18;;;;;;;29.27;20.03;;;;;;;8.44;93.16;96381.44;5016024;28;20469;-90
2021/04/19 08:57:45;;;;;;;37.60;25.20;;;;;;;8.32;94.08;96396.38;5016863;28;20441;-92
2021/04/19 09:00:15;;;;;;;30.93;20.90;;;;;;;8.30;94.38;96393.50;5013367;28;20437;-89
2021/04/19 09:02:42;;;;;;;32.33;20.23;;;;;;;8.31;94.12;96392.25;5003534;28;20423;-89
2021/04/19 09:05:12;;;;;;;27.03;19.97;;;;;;;8.34;94.24;96391.91;5007009;28;20464;-88
2021/04/19 09:07:41;;;;;;;30.50;21.00;;;;;;;8.37;94.45;96398.94;5158141;22;20597;-90
2021/04/19 09:10:12;;;;;;;33.60;21.70;;;;;;;8.27;95.00;96400.59;4981872;28;20484;-90
2021/04/19 09:12:38;;;;;;;35.30;21.77;;;;;;;8.22;95.71;96398.03;4980555;28;20417;-89
2021/04/19 09:15:17;;;;;;;34.93;21.30;;;;;;;8.28;95.94;96394.00;4982061;28;20464;-89
2021/04/19 09:17:58;;;;;;;35.80;21.57;;;;;;;8.39;95.53;96396.47;4982422;28;20457;-89
2021/04/19 09:20:33;;;;;;;34.73;20.97;;;;;;;8.44;95.49;96394.88;4982101;28;20450;-91
2021/04/19 09:23:18;;;;;;;34.97;21.00;;;;;;;8.51;95.07;96392.25;4985168;28;20451;-90
2021/04/19 09:25:45;;;;;;;37.40;21.27;;;;;;;8.45;94.74;96389.00;4982605;28;20409;-88
2021/04/19 09:28:12;;;;;;;32.87;19.50;;;;;;;8.32;94.69;96402.47;4982226;28;20465;-89
2021/04/19 09:30:46;;;;;;;27.20;18.27;;;;;;;8.43;94.71;96404.91;4981901;28;20463;-88
2021/04/19 09:33:24;;;;;;;32.17;19.87;;;;;;;8.49;94.56;96400.13;5011466;22;20476;-87
2021/04/19 09:35:55;;;;;;;29.00;19.67;;;;;;;8.52;94.44;96403.75;4983464;28;20401;-86
2021/04/19 09:38:51;;;;;;;27.40;18.47;;;;;;;8.56;94.23;96399.47;4984337;28;20405;-91
2021/04/19 09:41:20;;;;;;;37.23;18.83;;;;;;;8.32;94.67;96407.84;4986586;28;20464;-92
2021/04/19 09:43:49;;;;;;;35.60;21.33;;;;;;;8.24;95.11;96401.63;4983187;28;20502;-88
2021/04/19 09:46:32;;;;;;;41.90;21.80;;;;;;;8.33;95.01;96390.47;4984210;28;20843;-90
2021/04/19 09:49:34;;;;;;;34.83;21.10;;;;;;;8.36;94.40;96400.19;4989346;28;20460;-89
2021/04/19 09:52:09;;;;;;;32.33;19.57;;;;;;;8.28;93.95;96396.69;4985806;28;21026;-86
2021/04/19 09:54:36;;;;;;;32.13;21.70;;;;;;;8.12;93.75;96397.75;4983834;28;21022;-88
2021/04/19 09:57:10;;;;;;;33.10;23.30;;;;;;;8.13;94.10;96401.91;4981745;28;20421;-87
2021/04/19 09:59:36;;;;;;;39.70;22.77;;;;;;;8.05;94.99;96404.50;4980856;28;20416;-88
2021/04/19 10:02:02;;;;;;;37.07;23.90;;;;;;;8.20;94.68;96400.53;4999169;28;20820;-86
2021/04/19 10:04:30;;;;;;;31.10;20.27;;;;;;;8.29;94.29;96403.53;4998745;28;20472;-90
2021/04/19 10:07:01;;;;;;;35.83;22.73;;;;;;;8.33;94.42;96406.59;5002935;28;20416;-90
2021/04/19 10:09:29;;;;;;;34.30;22.87;;;;;;;8.40;94.42;96397.88;5001944;28;20455;-89
2021/04/19 10:12:00;;;;;;;37.27;22.80;;;;;;;8.38;94.87;96402.34;5004277;28;20433;-89
2021/04/19 10:14:27;;;;;;;30.47;21.43;;;;;;;8.47;93.58;96388.44;5000559;28;21066;-89
2021/04/19 10:16:54;;;;;;;36.37;23.83;;;;;;;8.35;94.00;96398.03;5001302;28;20513;-91
2021/04/19 10:19:26;;;;;;;34.83;23.97;;;;;;;8.45;93.66;96394.38;5000669;28;20445;-90
2021/04/19 10:21:59;;;;;;;36.07;22.00;;;;;;;8.58;93.06;96396.25;4999586;28;20500;-90
2021/04/19 10:24:26;;;;;;;35.77;23.67;;;;;;;8.56;92.97;96396.78;4998428;28;20473;-87
2021/04/19 10:26:53;;;;;;;39.50;25.37;;;;;;;8.74;93.57;96397.81;4999549;28;20827;-90
2021/04/19 10:29:21;;;;;;;32.00;22.03;;;;;;;8.86;93.20;96404.38;5001634;28;20599;-90
2021/04/19 10:31:52;;;;;;;41.43;25.77;;;;;;;8.82;92.64;96397.88;4997957;28;20908;-87
2021/04/19 10:34:19;;;;;;;38.07;24.63;;;;;;;8.96;92.15;96397.25;4995753;28;21003;-87
2021/04/19 10:36:48;;;;;;;38.97;22.77;;;;;;;9.15;91.43;96397.03;4996796;28;20749;-88
2021/04/19 10:39:17;;;;;;;38.60;24.90;;;;;;;9.23;91.65;96400.50;4999803;28;20975;-89
2021/04/19 10:41:47;;;;;;;36.00;24.17;;;;;;;9.15;92.23;96397.75;5000030;28;20904;-90
2021/04/19 10:44:16;;;;;;;39.17;23.00;;;;;;;9.12;92.07;96398.06;4999100;28;20470;-88
2021/04/19 10:46:44;;;;;;;35.50;22.80;;;;;;;9.02;92.31;96395.16;4999362;28;20449;-89
2021/04/19 10:49:22;;;;;;;39.50;25.40;;;;;;;8.92;93.92;96386.13;4998370;28;20468;-89
2021/04/19 10:51:54;;;;;;;35.20;24.03;;;;;;;9.06;93.39;96390.16;5002669;28;20902;-88
2021/04/19 10:54:30;;;;;;;43.07;26.13;;;;;;;9.01;94.17;96393.00;5002707;28;20469;-86
2021/04/19 10:56:57;;;;;;;34.30;23.80;;;;;;;9.06;93.83;96384.78;5000939;28;20413;-86
2021/04/19 10:59:25;;;;;;;40.30;24.40;;;;;;;9.05;94.47;96383.31;5002658;28;20416;-86
2021/04/19 11:02:00;;;;;;;36.20;23.90;;;;;;;9.06;94.88;96384.03;5001202;28;20441;-87
2021/04/19 11:04:27;;;;;;;46.87;27.27;;;;;;;9.20;95.41;96385.41;4998855;28;20489;-87
2021/04/19 11:06:55;;;;;;;37.97;23.47;;;;;;;9.33;94.29;96381.88;4999745;28;20485;-90
2021/04/19 11:09:26;;;;;;;38.73;25.87;;;;;;;9.33;94.87;96384.56;4997881;28;20986;-87
2021/04/19 11:11:54;;;;;;;40.13;23.57;;;;;;;9.43;94.88;96378.16;4997069;28;20901;-87
2021/04/19 11:14:23;;;;;;;43.07;25.73;;;;;;;9.63;93.54;96382.00;5007213;28;20431;-89
2021/04/19 11:17:00;;;;;;;37.67;23.50;;;;;;;9.68;93.41;96381.13;5014710;28;20432;-87
2021/04/19 11:19:30;;;;;;;36.13;23.87;;;;;;;9.66;93.22;96384.38;5017596;28;20396;-89
2021/04/19 11:21:57;;;;;;;42.57;23.50;;;;;;;9.52;92.96;96379.66;5002050;28;20415;-86
2021/04/19 11:24:35;;;;;;;35.00;22.73;;;;;;;9.41;93.93;96388.00;5000929;28;20466;-87
2021/04/19 11:27:04;;;;;;;36.73;25.27;;;;;;;9.47;92.64;96381.22;5000227;28;20436;-87
2021/04/19 11:29:37;;;;;;;39.20;24.27;;;;;;;9.53;92.85;96379.09;5004513;28;20476;-89
2021/04/19 11:32:06;;;;;;;38.60;22.37;;;;;;;9.66;93.04;96378.97;5018430;28;20479;-92
2021/04/19 11:34:36;;;;;;;39.30;23.87;;;;;;;9.73;92.71;96376.84;5018603;28;20453;-92
2021/04/19 11:37:04;;;;;;;36.60;24.60;;;;;;;9.69;91.97;96377.19;5018378;28;20421;-92
2021/04/19 11:39:40;;;;;;;34.50;21.77;;;;;;;9.71;91.85;96384.75;5012213;28;20438;-86